TAR499 DTTA-DTTJ
Flight info
| Callsign | TAR499 |
|---|---|
| Flight time | 0h 34m |
| Altitude | 23000 |
| Route | GIBLI2A GIBLI A411 MON UA411 ELJEM A411 SFX UA411 JBA |
| Aircraft | A320/M-SDE3FGHIRWY/LB1 |
Departure
| Time | 2026-04-22 07:36 |
|---|---|
| Airport | Tunis Carthage International Airport (DTTA) |
Arrival
| Time | 2026-04-22 08:10 |
|---|---|
| Airport | Djerba Zarzis International Airport (DTTJ) |
| Time | Latitude | Longitude | Altitude | Speed | Heading |
|---|---|---|---|---|---|
| 2026-04-22 07:13 | 36.84325 | 10.21856 | 31 ft | 0 kts | 282° |
| 2026-04-22 07:26 | 36.84324 | 10.21861 | 30 ft | 3 kts | 282° |
| 2026-04-22 07:26 | 36.84318 | 10.21894 | 30 ft | 4 kts | 282° |
| 2026-04-22 07:26 | 36.84315 | 10.21908 | 30 ft | 4 kts | 278° |
| 2026-04-22 07:26 | 36.84321 | 10.21941 | 30 ft | 4 kts | 221° |
| 2026-04-22 07:27 | 36.84343 | 10.21957 | 30 ft | 3 kts | 193° |
| 2026-04-22 07:27 | 36.84347 | 10.21958 | 30 ft | 0 kts | 192° |
| 2026-04-22 07:29 | 36.84322 | 10.21951 | 30 ft | 9 kts | 192° |
| 2026-04-22 07:30 | 36.84263 | 10.21935 | 30 ft | 8 kts | 192° |
| 2026-04-22 07:30 | 36.84213 | 10.21921 | 30 ft | 7 kts | 192° |
| 2026-04-22 07:30 | 36.84171 | 10.21909 | 30 ft | 6 kts | 192° |
| 2026-04-22 07:30 | 36.84134 | 10.21899 | 30 ft | 6 kts | 192° |
| 2026-04-22 07:31 | 36.84052 | 10.21875 | 30 ft | 17 kts | 193° |
| 2026-04-22 07:31 | 36.83995 | 10.21858 | 30 ft | 0 kts | 193° |
| 2026-04-22 07:33 | 36.83979 | 10.21854 | 30 ft | 7 kts | 193° |
| 2026-04-22 07:33 | 36.83944 | 10.21847 | 30 ft | 5 kts | 185° |
| 2026-04-22 07:33 | 36.83897 | 10.21879 | 30 ft | 12 kts | 105° |
| 2026-04-22 07:33 | 36.83882 | 10.22023 | 30 ft | 22 kts | 98° |
| 2026-04-22 07:34 | 36.83877 | 10.22218 | 31 ft | 23 kts | 73° |
| 2026-04-22 07:34 | 36.83965 | 10.22383 | 30 ft | 22 kts | 35° |
| 2026-04-22 07:34 | 36.84016 | 10.22403 | 31 ft | 0 kts | 13° |
| 2026-04-22 07:35 | 36.84077 | 10.22420 | 32 ft | 36 kts | 12° |
| 2026-04-22 07:35 | 36.84568 | 10.22554 | 28 ft | 105 kts | 12° |
| 2026-04-22 07:35 | 36.85140 | 10.22709 | 36 ft | 141 kts | 12° |
| 2026-04-22 07:36 | 36.86268 | 10.23014 | 230 ft | 170 kts | 12° |
| 2026-04-22 07:36 | 36.87461 | 10.23344 | 846 ft | 173 kts | 12° |
| 2026-04-22 07:36 | 36.88680 | 10.23677 | 1361 ft | 186 kts | 12° |
| 2026-04-22 07:36 | 36.90042 | 10.24049 | 1721 ft | 202 kts | 12° |
| 2026-04-22 07:37 | 36.91497 | 10.24447 | 2129 ft | 218 kts | 12° |
| 2026-04-22 07:37 | 36.93010 | 10.24858 | 2690 ft | 225 kts | 12° |
| 2026-04-22 07:37 | 36.94552 | 10.25186 | 3466 ft | 225 kts | 359° |
| 2026-04-22 07:37 | 36.96068 | 10.24742 | 4193 ft | 226 kts | 329° |
| 2026-04-22 07:38 | 36.97202 | 10.23407 | 4883 ft | 227 kts | 299° |
| 2026-04-22 07:38 | 36.97641 | 10.21505 | 5613 ft | 227 kts | 269° |
| 2026-04-22 07:38 | 36.97246 | 10.19609 | 6331 ft | 229 kts | 239° |
| 2026-04-22 07:38 | 36.96078 | 10.18154 | 7063 ft | 233 kts | 209° |
| 2026-04-22 07:39 | 36.94441 | 10.17464 | 7840 ft | 237 kts | 198° |
| 2026-04-22 07:39 | 36.92803 | 10.16993 | 8578 ft | 242 kts | 185° |
| 2026-04-22 07:39 | 36.91712 | 10.17141 | 9021 ft | 247 kts | 163° |
| 2026-04-22 07:39 | 36.90078 | 10.18364 | 9741 ft | 254 kts | 144° |
| 2026-04-22 07:40 | 36.88644 | 10.19737 | 10444 ft | 257 kts | 144° |
| 2026-04-22 07:40 | 36.87197 | 10.21124 | 11143 ft | 261 kts | 145° |
| 2026-04-22 07:40 | 36.85745 | 10.22502 | 11819 ft | 264 kts | 148° |
| 2026-04-22 07:40 | 36.84106 | 10.23618 | 12359 ft | 272 kts | 162° |
| 2026-04-22 07:41 | 36.82239 | 10.24519 | 12602 ft | 295 kts | 163° |
| 2026-04-22 07:41 | 36.80239 | 10.25457 | 12811 ft | 318 kts | 163° |
| 2026-04-22 07:41 | 36.78090 | 10.26457 | 12992 ft | 341 kts | 162° |
| 2026-04-22 07:41 | 36.75795 | 10.27527 | 13134 ft | 364 kts | 162° |
| 2026-04-22 07:42 | 36.73220 | 10.28740 | 13270 ft | 386 kts | 162° |
| 2026-04-22 07:42 | 36.70648 | 10.29961 | 13400 ft | 405 kts | 162° |
| 2026-04-22 07:42 | 36.67965 | 10.31240 | 13672 ft | 418 kts | 161° |
| 2026-04-22 07:42 | 36.65229 | 10.32543 | 14178 ft | 424 kts | 162° |
| 2026-04-22 07:43 | 36.62457 | 10.33861 | 14727 ft | 428 kts | 162° |
| 2026-04-22 07:43 | 36.59658 | 10.35190 | 15263 ft | 432 kts | 162° |
| 2026-04-22 07:43 | 36.56836 | 10.36529 | 15756 ft | 436 kts | 162° |
| 2026-04-22 07:43 | 36.53987 | 10.37877 | 16253 ft | 440 kts | 162° |
| 2026-04-22 07:44 | 36.51069 | 10.39251 | 16731 ft | 444 kts | 162° |
| 2026-04-22 07:44 | 36.48166 | 10.40616 | 17180 ft | 448 kts | 162° |
| 2026-04-22 07:44 | 36.45279 | 10.41977 | 17595 ft | 452 kts | 162° |
| 2026-04-22 07:44 | 36.42286 | 10.43388 | 18004 ft | 456 kts | 162° |
| 2026-04-22 07:45 | 36.39313 | 10.44788 | 18414 ft | 459 kts | 162° |
| 2026-04-22 07:45 | 36.36318 | 10.46200 | 18810 ft | 462 kts | 162° |
| 2026-04-22 07:45 | 36.33306 | 10.47637 | 19209 ft | 465 kts | 161° |
| 2026-04-22 07:45 | 36.30287 | 10.49091 | 19581 ft | 467 kts | 161° |
| 2026-04-22 07:46 | 36.27254 | 10.50556 | 19953 ft | 469 kts | 161° |
| 2026-04-22 07:46 | 36.24197 | 10.52019 | 20311 ft | 472 kts | 161° |
| 2026-04-22 07:46 | 36.21129 | 10.53474 | 20632 ft | 474 kts | 161° |
| 2026-04-22 07:46 | 36.18041 | 10.54931 | 20963 ft | 476 kts | 161° |
| 2026-04-22 07:47 | 36.14943 | 10.56385 | 21282 ft | 478 kts | 161° |
| 2026-04-22 07:47 | 36.11830 | 10.57843 | 21588 ft | 480 kts | 161° |
| 2026-04-22 07:47 | 36.08695 | 10.59310 | 21877 ft | 482 kts | 161° |
| 2026-04-22 07:47 | 36.05557 | 10.60780 | 22167 ft | 483 kts | 161° |
| 2026-04-22 07:48 | 36.02407 | 10.62257 | 22451 ft | 485 kts | 161° |
| 2026-04-22 07:48 | 35.99247 | 10.63737 | 22716 ft | 487 kts | 161° |
| 2026-04-22 07:48 | 35.96068 | 10.65225 | 22889 ft | 488 kts | 161° |
| 2026-04-22 07:48 | 35.92879 | 10.66716 | 22937 ft | 493 kts | 161° |
| 2026-04-22 07:49 | 35.89618 | 10.68235 | 22940 ft | 494 kts | 161° |
| 2026-04-22 07:49 | 35.86393 | 10.69736 | 22943 ft | 495 kts | 161° |
| 2026-04-22 07:49 | 35.83172 | 10.71236 | 22944 ft | 495 kts | 161° |
| 2026-04-22 07:49 | 35.79911 | 10.72754 | 22943 ft | 495 kts | 162° |
| 2026-04-22 07:50 | 35.76614 | 10.73944 | 22942 ft | 492 kts | 170° |
| 2026-04-22 07:50 | 35.73240 | 10.74530 | 22943 ft | 489 kts | 179° |
| 2026-04-22 07:50 | 35.69845 | 10.74518 | 22944 ft | 486 kts | 186° |
| 2026-04-22 07:50 | 35.66464 | 10.74307 | 22944 ft | 486 kts | 186° |
| 2026-04-22 07:51 | 35.63085 | 10.74103 | 22943 ft | 486 kts | 185° |
| 2026-04-22 07:51 | 35.59702 | 10.73907 | 22943 ft | 486 kts | 185° |
| 2026-04-22 07:51 | 35.56323 | 10.73718 | 22942 ft | 486 kts | 185° |
| 2026-04-22 07:51 | 35.52943 | 10.73531 | 22941 ft | 486 kts | 185° |
| 2026-04-22 07:52 | 35.49567 | 10.73341 | 22940 ft | 486 kts | 185° |
| 2026-04-22 07:52 | 35.46150 | 10.73148 | 22938 ft | 485 kts | 185° |
| 2026-04-22 07:52 | 35.42773 | 10.72956 | 22937 ft | 485 kts | 185° |
| 2026-04-22 07:52 | 35.39399 | 10.72769 | 22937 ft | 485 kts | 185° |
| 2026-04-22 07:53 | 35.36022 | 10.72585 | 22938 ft | 485 kts | 185° |
| 2026-04-22 07:53 | 35.32648 | 10.72403 | 22942 ft | 485 kts | 185° |
| 2026-04-22 07:53 | 35.29276 | 10.72224 | 22944 ft | 485 kts | 185° |
| 2026-04-22 07:53 | 35.25902 | 10.72046 | 22943 ft | 485 kts | 185° |
| 2026-04-22 07:54 | 35.22525 | 10.71867 | 22943 ft | 485 kts | 185° |
| 2026-04-22 07:54 | 35.19147 | 10.71686 | 22953 ft | 485 kts | 185° |
| 2026-04-22 07:54 | 35.15775 | 10.71500 | 22956 ft | 485 kts | 185° |
| 2026-04-22 07:54 | 35.12404 | 10.71315 | 22956 ft | 485 kts | 185° |
| 2026-04-22 07:55 | 35.09030 | 10.71134 | 22958 ft | 485 kts | 185° |
| 2026-04-22 07:55 | 35.05659 | 10.70957 | 22956 ft | 485 kts | 185° |
| 2026-04-22 07:55 | 35.02287 | 10.70779 | 22955 ft | 485 kts | 185° |
| 2026-04-22 07:55 | 34.98912 | 10.70602 | 22955 ft | 485 kts | 185° |
| 2026-04-22 07:56 | 34.95545 | 10.70424 | 22834 ft | 485 kts | 185° |
| 2026-04-22 07:56 | 34.92184 | 10.70227 | 22589 ft | 482 kts | 185° |
| 2026-04-22 07:56 | 34.88841 | 10.70013 | 22211 ft | 480 kts | 185° |
| 2026-04-22 07:56 | 34.85518 | 10.69794 | 21212 ft | 476 kts | 186° |
| 2026-04-22 07:57 | 34.82230 | 10.69577 | 20351 ft | 471 kts | 186° |
| 2026-04-22 07:57 | 34.78974 | 10.69362 | 19487 ft | 466 kts | 186° |
| 2026-04-22 07:57 | 34.75747 | 10.69153 | 18640 ft | 462 kts | 186° |
| 2026-04-22 07:57 | 34.72555 | 10.68948 | 17815 ft | 457 kts | 186° |
| 2026-04-22 07:58 | 34.70416 | 10.68777 | 17268 ft | 454 kts | 187° |
| 2026-04-22 07:58 | 34.67294 | 10.68399 | 16491 ft | 448 kts | 189° |
| 2026-04-22 07:58 | 34.64230 | 10.67904 | 15778 ft | 442 kts | 191° |
| 2026-04-22 07:58 | 34.61202 | 10.67346 | 15093 ft | 436 kts | 191° |
| 2026-04-22 07:59 | 34.58214 | 10.66776 | 14354 ft | 432 kts | 191° |
| 2026-04-22 07:59 | 34.55259 | 10.66227 | 13635 ft | 428 kts | 190° |
| 2026-04-22 07:59 | 34.52333 | 10.65714 | 12971 ft | 422 kts | 189° |
| 2026-04-22 07:59 | 34.49403 | 10.65227 | 12304 ft | 417 kts | 189° |
| 2026-04-22 08:00 | 34.46540 | 10.64768 | 11649 ft | 412 kts | 188° |
| 2026-04-22 08:00 | 34.43737 | 10.64325 | 11247 ft | 400 kts | 188° |
| 2026-04-22 08:00 | 34.41047 | 10.63900 | 11125 ft | 381 kts | 188° |
| 2026-04-22 08:00 | 34.38485 | 10.63495 | 10990 ft | 363 kts | 188° |
| 2026-04-22 08:01 | 34.36028 | 10.63101 | 10867 ft | 348 kts | 188° |
| 2026-04-22 08:01 | 34.33681 | 10.62719 | 10744 ft | 333 kts | 189° |
| 2026-04-22 08:01 | 34.31428 | 10.62350 | 10624 ft | 320 kts | 189° |
| 2026-04-22 08:01 | 34.29266 | 10.61997 | 10502 ft | 308 kts | 189° |
| 2026-04-22 08:02 | 34.27176 | 10.61657 | 10307 ft | 299 kts | 189° |
| 2026-04-22 08:02 | 34.25131 | 10.61324 | 10129 ft | 293 kts | 189° |
| 2026-04-22 08:02 | 34.23110 | 10.60999 | 10057 ft | 293 kts | 188° |
| 2026-04-22 08:02 | 34.21091 | 10.60677 | 9928 ft | 292 kts | 188° |
| 2026-04-22 08:03 | 34.19057 | 10.60348 | 9450 ft | 295 kts | 188° |
| 2026-04-22 08:03 | 34.17017 | 10.60017 | 9154 ft | 289 kts | 188° |
| 2026-04-22 08:03 | 34.15019 | 10.59693 | 8696 ft | 289 kts | 188° |
| 2026-04-22 08:03 | 34.13040 | 10.59369 | 8352 ft | 285 kts | 188° |
| 2026-04-22 08:04 | 34.11079 | 10.59049 | 7950 ft | 284 kts | 188° |
| 2026-04-22 08:04 | 34.09127 | 10.58733 | 7543 ft | 282 kts | 188° |
| 2026-04-22 08:04 | 34.07189 | 10.58421 | 7134 ft | 280 kts | 188° |
| 2026-04-22 08:04 | 34.05269 | 10.58111 | 6731 ft | 277 kts | 188° |
| 2026-04-22 08:05 | 34.03363 | 10.57806 | 6329 ft | 275 kts | 188° |
| 2026-04-22 08:05 | 34.01466 | 10.57503 | 5907 ft | 273 kts | 188° |
| 2026-04-22 08:05 | 33.99586 | 10.57204 | 5484 ft | 272 kts | 188° |
| 2026-04-22 08:05 | 33.97694 | 10.56902 | 4824 ft | 279 kts | 188° |
| 2026-04-22 08:06 | 33.95745 | 10.56589 | 4232 ft | 283 kts | 188° |
| 2026-04-22 08:06 | 33.93839 | 10.56281 | 4087 ft | 269 kts | 189° |
| 2026-04-22 08:06 | 33.92032 | 10.55987 | 3974 ft | 255 kts | 189° |
| 2026-04-22 08:06 | 33.90313 | 10.55709 | 3852 ft | 242 kts | 189° |
| 2026-04-22 08:07 | 33.88658 | 10.55693 | 3732 ft | 231 kts | 164° |
| 2026-04-22 08:07 | 33.87387 | 10.56787 | 3581 ft | 231 kts | 125° |
| 2026-04-22 08:07 | 33.86924 | 10.58629 | 3202 ft | 235 kts | 95° |
| 2026-04-22 08:07 | 33.86903 | 10.60605 | 2825 ft | 237 kts | 89° |
| 2026-04-22 08:08 | 33.87036 | 10.62565 | 2303 ft | 235 kts | 83° |
| 2026-04-22 08:08 | 33.87189 | 10.64503 | 1924 ft | 230 kts | 86° |
| 2026-04-22 08:08 | 33.87258 | 10.66403 | 1632 ft | 216 kts | 87° |
| 2026-04-22 08:08 | 33.87303 | 10.68177 | 1315 ft | 202 kts | 87° |
| 2026-04-22 08:09 | 33.87344 | 10.69821 | 1047 ft | 185 kts | 87° |
| 2026-04-22 08:09 | 33.87382 | 10.71313 | 835 ft | 167 kts | 86° |
| 2026-04-22 08:09 | 33.87416 | 10.72656 | 605 ft | 155 kts | 86° |
| 2026-04-22 08:09 | 33.87449 | 10.73936 | 400 ft | 148 kts | 86° |
| 2026-04-22 08:10 | 33.87479 | 10.75171 | 212 ft | 146 kts | 86° |
| 2026-04-22 08:10 | 33.87507 | 10.76404 | 22 ft | 143 kts | 87° |
| 2026-04-22 08:10 | 33.87541 | 10.77151 | 21 ft | 17 kts | 87° |
| 2026-04-22 08:10 | 33.87542 | 10.77161 | 21 ft | 0 kts | 87° |
| 2026-04-22 08:14 | 33.87543 | 10.77183 | 22 ft | 10 kts | 87° |
| 2026-04-22 08:14 | 33.87546 | 10.77307 | 20 ft | 16 kts | 91° |
| 2026-04-22 08:14 | 33.87543 | 10.77442 | 20 ft | 15 kts | 91° |
| 2026-04-22 08:14 | 33.87540 | 10.77550 | 24 ft | 11 kts | 91° |
| 2026-04-22 08:15 | 33.87540 | 10.77608 | 24 ft | 10 kts | 90° |
| 2026-04-22 08:15 | 33.87516 | 10.77710 | 23 ft | 17 kts | 142° |
| 2026-04-22 08:15 | 33.87399 | 10.77700 | 31 ft | 18 kts | 226° |
| 2026-04-22 08:15 | 33.87382 | 10.77551 | 26 ft | 19 kts | 268° |
| 2026-04-22 08:16 | 33.87367 | 10.77447 | 27 ft | 0 kts | 187° |
| 2026-04-22 08:16 | 33.87347 | 10.77445 | 27 ft | 4 kts | 184° |
| 2026-04-22 08:16 | 33.87327 | 10.77443 | 27 ft | 2 kts | 184° |
| 2026-04-22 08:16 | 33.87313 | 10.77442 | 27 ft | 2 kts | 186° |
| 2026-04-22 08:17 | 33.87305 | 10.77441 | 27 ft | 1 kts | 187° |
| 2026-04-22 08:17 | 33.87304 | 10.77440 | 27 ft | 0 kts | 187° |
| 2026-04-22 08:17 | 33.87303 | 10.77440 | 27 ft | 1 kts | 187° |
| 2026-04-22 08:17 | 33.87296 | 10.77439 | 27 ft | 1 kts | 187° |
| 2026-04-22 08:18 | 33.87295 | 10.77439 | 27 ft | 0 kts | 187° |
| 2026-04-22 08:21 | 33.87307 | 10.77443 | 27 ft | 8 kts | 224° |
| 2026-04-22 08:21 | 33.87305 | 10.77447 | 27 ft | 0 kts | 162° |
| 2026-04-22 08:23 | 33.87305 | 10.77454 | 27 ft | 0 kts | 209° |
| 2026-04-22 08:24 | 33.87200 | 10.77333 | 29 ft | 0 kts | 140° |